createdAt,value
2022-12-25T00:00:20.468Z,9.13
2022-12-25T00:02:48.406Z,8.27
2022-12-25T00:05:15.849Z,8.07
2022-12-25T00:07:43.068Z,8.43
2022-12-25T00:10:11.114Z,9.13
2022-12-25T00:12:38.786Z,7.30
2022-12-25T00:15:06.489Z,8.87
2022-12-25T00:17:33.869Z,8.57
2022-12-25T00:20:01.090Z,8.10
2022-12-25T00:22:28.380Z,6.27
2022-12-25T00:24:55.615Z,6.90
2022-12-25T00:27:22.872Z,6.60
2022-12-25T00:29:50.189Z,5.30
2022-12-25T00:32:17.521Z,6.53
2022-12-25T00:34:44.747Z,6.43
2022-12-25T00:37:12.111Z,5.43
2022-12-25T00:39:40.107Z,5.30
2022-12-25T00:42:19.446Z,5.30
2022-12-25T00:44:47.265Z,4.90
2022-12-25T00:47:14.647Z,5.40
2022-12-25T00:49:42.019Z,5.53
2022-12-25T00:52:09.281Z,5.23
2022-12-25T00:54:36.829Z,5.30
2022-12-25T00:57:04.887Z,5.43
2022-12-25T00:59:32.925Z,5.40
2022-12-25T01:02:19.031Z,5.40
2022-12-25T01:04:46.445Z,6.57
2022-12-25T01:07:13.784Z,5.67
2022-12-25T01:09:59.737Z,6.13
2022-12-25T01:12:27.092Z,5.33
2022-12-25T01:14:54.531Z,5.37
2022-12-25T01:17:21.771Z,5.80
2022-12-25T01:19:49.009Z,5.87
2022-12-25T01:22:16.522Z,5.57
2022-12-25T01:24:44.625Z,5.40
2022-12-25T01:27:12.496Z,5.73
2022-12-25T01:29:39.856Z,5.40
2022-12-25T01:32:07.613Z,5.87
2022-12-25T01:34:34.964Z,5.60
2022-12-25T01:37:02.274Z,4.97
2022-12-25T01:39:29.556Z,5.63
2022-12-25T01:41:57.344Z,5.50
2022-12-25T01:44:37.197Z,5.30
2022-12-25T01:47:05.335Z,5.97
2022-12-25T01:49:33.652Z,4.67
2022-12-25T01:52:11.741Z,6.63
2022-12-25T01:54:41.130Z,5.50
2022-12-25T01:57:10.306Z,5.40
2022-12-25T01:59:37.607Z,5.33
2022-12-25T02:02:05.273Z,4.93
2022-12-25T02:04:39.763Z,4.67
2022-12-25T02:07:08.147Z,5.27
2022-12-25T02:09:35.595Z,4.87
2022-12-25T02:12:03.287Z,4.80
2022-12-25T02:14:31.987Z,4.37
2022-12-25T02:17:11.409Z,4.90
2022-12-25T02:19:41.843Z,4.53
2022-12-25T02:22:31.808Z,4.23
2022-12-25T02:24:59.486Z,4.37
2022-12-25T02:27:29.641Z,4.20
2022-12-25T02:29:56.813Z,4.70
2022-12-25T02:32:27.232Z,4.87
2022-12-25T02:35:01.762Z,4.83
2022-12-25T02:37:32.724Z,4.87
2022-12-25T02:40:06.243Z,4.50
2022-12-25T02:42:55.494Z,4.57
2022-12-25T02:46:04.282Z,4.67
2022-12-25T02:48:52.337Z,4.37
2022-12-25T02:51:40.164Z,4.50
2022-12-25T02:54:31.994Z,5.10
2022-12-25T02:57:19.240Z,4.70
2022-12-25T03:00:08.279Z,4.63
2022-12-25T03:02:54.761Z,5.20
2022-12-25T03:05:43.537Z,4.60
2022-12-25T03:08:21.637Z,4.73
2022-12-25T03:11:16.026Z,5.13
2022-12-25T03:13:45.359Z,5.07
2022-12-25T03:16:31.364Z,4.97
2022-12-25T03:18:59.296Z,4.73
2022-12-25T03:21:45.469Z,4.87
2022-12-25T03:24:31.846Z,4.40
2022-12-25T03:26:59.235Z,4.27
2022-12-25T03:29:50.281Z,4.17
2022-12-25T03:32:29.864Z,4.87
2022-12-25T03:35:16.102Z,4.53
2022-12-25T03:38:07.956Z,4.10
2022-12-25T03:40:53.866Z,4.73
2022-12-25T03:43:56.230Z,4.00
2022-12-25T03:46:44.773Z,4.00
2022-12-25T03:49:39.394Z,4.80
2022-12-25T03:52:27.945Z,4.23
2022-12-25T03:55:16.644Z,4.13
2022-12-25T03:58:03.277Z,4.00
2022-12-25T04:00:49.392Z,4.30
2022-12-25T04:03:35.656Z,4.07
2022-12-25T04:06:21.406Z,4.40
2022-12-25T04:09:07.318Z,4.10
2022-12-25T04:11:58.785Z,4.87
2022-12-25T04:14:48.104Z,4.70
2022-12-25T04:17:34.037Z,4.77
2022-12-25T04:20:20.228Z,4.93
2022-12-25T04:23:06.534Z,4.23
2022-12-25T04:25:52.323Z,4.47
2022-12-25T04:28:38.752Z,4.33
2022-12-25T04:31:25.214Z,4.70
2022-12-25T04:34:11.064Z,4.53
2022-12-25T04:36:38.466Z,4.73
2022-12-25T04:39:05.673Z,5.37
2022-12-25T04:41:33.059Z,4.47
2022-12-25T04:44:00.272Z,4.57
2022-12-25T04:46:27.522Z,4.43
2022-12-25T04:48:54.923Z,4.53
2022-12-25T04:51:23.142Z,4.43
2022-12-25T04:53:50.931Z,4.20
2022-12-25T04:56:18.589Z,4.90
2022-12-25T04:58:45.987Z,4.80
2022-12-25T05:01:13.841Z,4.47
2022-12-25T05:03:41.716Z,4.23
2022-12-25T05:06:09.024Z,4.33
2022-12-25T05:08:37.000Z,4.60
2022-12-25T05:11:08.574Z,4.70
2022-12-25T05:13:36.137Z,4.40
2022-12-25T05:16:07.501Z,4.73
2022-12-25T05:18:34.881Z,4.70
2022-12-25T05:21:02.993Z,4.13
2022-12-25T05:23:30.294Z,4.87
2022-12-25T05:25:57.707Z,4.53
2022-12-25T05:28:24.918Z,4.97
2022-12-25T05:30:52.132Z,4.93
2022-12-25T05:33:19.482Z,5.07
2022-12-25T05:35:46.722Z,5.30
2022-12-25T05:38:13.970Z,4.67
2022-12-25T05:40:41.465Z,4.77
2022-12-25T05:43:09.265Z,4.57
2022-12-25T05:45:37.032Z,4.23
2022-12-25T05:48:04.357Z,4.73
2022-12-25T05:50:31.645Z,4.33
2022-12-25T05:53:08.993Z,4.90
2022-12-25T05:55:37.194Z,5.13
2022-12-25T05:58:23.809Z,4.90
2022-12-25T06:00:51.082Z,4.73
2022-12-25T06:03:18.386Z,4.83
2022-12-25T06:05:45.784Z,5.27
2022-12-25T06:08:13.043Z,4.97
2022-12-25T06:10:40.278Z,5.40
2022-12-25T06:13:07.560Z,5.37
2022-12-25T06:15:34.873Z,5.50
2022-12-25T06:18:02.242Z,5.07
2022-12-25T06:20:29.493Z,4.80
2022-12-25T06:22:56.778Z,5.10
2022-12-25T06:25:24.047Z,5.57
2022-12-25T06:27:51.336Z,4.97
2022-12-25T06:30:18.589Z,4.97
2022-12-25T06:32:45.935Z,4.90
2022-12-25T06:35:13.261Z,5.17
2022-12-25T06:37:40.665Z,5.37
2022-12-25T06:40:08.331Z,5.37
2022-12-25T06:42:35.704Z,4.80
2022-12-25T06:45:03.042Z,5.13
2022-12-25T06:47:30.279Z,5.53
2022-12-25T06:49:57.778Z,5.80
2022-12-25T06:52:25.003Z,5.07
2022-12-25T06:54:52.223Z,5.83
2022-12-25T06:57:19.576Z,5.13
2022-12-25T06:59:51.368Z,5.83
2022-12-25T07:02:23.258Z,5.80
2022-12-25T07:04:50.712Z,5.87
2022-12-25T07:07:18.008Z,6.00
2022-12-25T07:09:45.308Z,6.20
2022-12-25T07:12:15.562Z,6.17
2022-12-25T07:14:43.101Z,6.40
2022-12-25T07:17:10.374Z,6.60
2022-12-25T07:19:44.505Z,6.17
2022-12-25T07:22:12.445Z,6.13
2022-12-25T07:24:39.791Z,6.50
2022-12-25T07:27:08.224Z,6.23
2022-12-25T07:29:35.670Z,7.37
2022-12-25T07:32:02.988Z,6.97
2022-12-25T07:34:30.391Z,6.57
2022-12-25T07:36:57.626Z,6.80
2022-12-25T07:39:25.127Z,7.67
2022-12-25T07:41:52.381Z,12.50
2022-12-25T07:44:19.734Z,6.67
2022-12-25T07:46:47.432Z,7.37
2022-12-25T07:49:14.693Z,7.20
2022-12-25T07:51:42.032Z,7.47
2022-12-25T07:54:09.330Z,7.20
2022-12-25T07:56:36.634Z,7.47
2022-12-25T07:59:04.137Z,7.50
2022-12-25T08:01:31.507Z,7.13
2022-12-25T08:04:00.863Z,7.43
2022-12-25T08:06:30.678Z,7.30
2022-12-25T08:08:58.836Z,7.50
2022-12-25T08:11:26.080Z,7.27
2022-12-25T08:13:53.381Z,6.47
2022-12-25T08:16:20.932Z,7.73
2022-12-25T08:18:48.330Z,7.57
2022-12-25T08:21:16.108Z,7.33
2022-12-25T08:23:44.586Z,7.40
2022-12-25T08:26:13.542Z,7.20
2022-12-25T08:28:40.898Z,7.60
2022-12-25T08:31:09.615Z,7.20
2022-12-25T08:33:37.591Z,6.80
2022-12-25T08:36:05.877Z,7.33
2022-12-25T08:38:33.191Z,7.57
2022-12-25T08:41:00.720Z,7.30
2022-12-25T08:43:28.041Z,7.37
2022-12-25T08:45:55.662Z,7.57
2022-12-25T08:48:22.954Z,7.27
2022-12-25T08:50:51.776Z,7.83
2022-12-25T08:53:19.452Z,7.13
2022-12-25T08:55:46.796Z,7.67
2022-12-25T08:58:17.141Z,7.50
2022-12-25T09:00:44.434Z,7.47
2022-12-25T09:03:11.753Z,8.93
2022-12-25T09:05:39.179Z,7.90
2022-12-25T09:08:06.740Z,7.50
2022-12-25T09:10:36.733Z,7.67
2022-12-25T09:13:05.089Z,7.20
2022-12-25T09:15:32.521Z,7.50
2022-12-25T09:17:59.869Z,7.17
2022-12-25T09:20:27.219Z,7.20
2022-12-25T09:22:54.972Z,6.63
2022-12-25T09:25:22.467Z,7.40
2022-12-25T09:27:49.879Z,7.30
2022-12-25T09:30:17.214Z,7.20
2022-12-25T09:32:44.529Z,7.90
2022-12-25T09:35:13.941Z,7.20
2022-12-25T09:37:41.452Z,7.27
2022-12-25T09:40:28.007Z,7.50
2022-12-25T09:42:56.152Z,7.50
2022-12-25T09:45:29.946Z,7.30
2022-12-25T09:47:57.781Z,6.87
2022-12-25T09:50:45.266Z,8.10
2022-12-25T09:53:26.414Z,6.67
2022-12-25T09:56:02.530Z,9.03
2022-12-25T09:58:30.695Z,7.03
2022-12-25T10:01:14.316Z,6.67
2022-12-25T10:04:20.250Z,6.57
2022-12-25T10:06:47.708Z,6.87
2022-12-25T10:09:26.454Z,6.10
2022-12-25T10:11:59.619Z,5.90
2022-12-25T10:14:35.128Z,6.80
2022-12-25T10:17:11.162Z,5.77
2022-12-25T10:19:57.168Z,5.97
2022-12-25T10:22:41.671Z,5.97
2022-12-25T10:25:38.218Z,5.83
2022-12-25T10:28:12.513Z,5.43
2022-12-25T10:30:41.234Z,6.00
2022-12-25T10:33:16.893Z,5.47
2022-12-25T10:35:45.131Z,5.47
2022-12-25T10:38:17.008Z,5.17
2022-12-25T10:40:48.429Z,5.70
2022-12-25T10:43:22.156Z,5.43
2022-12-25T10:45:49.927Z,6.40
2022-12-25T10:48:26.015Z,5.67
2022-12-25T10:50:53.303Z,5.70
2022-12-25T10:53:22.471Z,5.50
2022-12-25T10:55:56.763Z,5.30
2022-12-25T10:58:24.028Z,9.43
2022-12-25T11:01:23.584Z,6.70
2022-12-25T11:03:53.034Z,5.70
2022-12-25T11:06:24.826Z,5.33
2022-12-25T11:08:56.516Z,4.57
2022-12-25T11:11:24.087Z,5.27
2022-12-25T11:13:53.910Z,4.63
2022-12-25T11:16:32.915Z,4.67
2022-12-25T11:19:00.567Z,4.60
2022-12-25T11:21:32.613Z,4.40
2022-12-25T11:24:04.961Z,4.47
2022-12-25T11:26:37.075Z,4.87
2022-12-25T11:29:05.929Z,4.47
2022-12-25T11:31:37.867Z,5.33
2022-12-25T11:34:08.503Z,4.63
2022-12-25T11:36:49.801Z,4.27
2022-12-25T11:39:17.089Z,4.80
2022-12-25T11:41:45.058Z,4.73
2022-12-25T11:44:31.029Z,4.17
2022-12-25T11:47:02.073Z,4.40
2022-12-25T11:49:30.208Z,5.07
2022-12-25T11:51:58.138Z,4.47
2022-12-25T11:54:25.431Z,4.53
2022-12-25T11:56:53.138Z,4.70
2022-12-25T11:59:26.279Z,4.63
2022-12-25T12:01:55.859Z,4.60
2022-12-25T12:04:38.514Z,5.17
2022-12-25T12:07:13.847Z,4.17
2022-12-25T12:09:41.124Z,4.87
2022-12-25T12:15:03.001Z,4.70
2022-12-25T12:17:30.340Z,4.83
2022-12-25T12:19:58.919Z,4.80
2022-12-25T12:22:28.656Z,5.20
2022-12-25T12:25:16.308Z,4.90
2022-12-25T12:27:43.883Z,5.30
2022-12-25T12:30:24.029Z,4.83
2022-12-25T12:32:52.572Z,5.20
2022-12-25T12:35:21.721Z,6.13
2022-12-25T12:37:54.458Z,4.83
2022-12-25T12:40:24.599Z,4.93
2022-12-25T12:42:52.455Z,5.40
2022-12-25T12:45:21.078Z,4.90
2022-12-25T12:47:49.669Z,5.50
2022-12-25T12:50:32.508Z,5.50
2022-12-25T12:53:00.848Z,5.00
2022-12-25T12:55:31.966Z,4.70
2022-12-25T12:58:04.122Z,4.07
2022-12-25T13:00:47.236Z,5.43
2022-12-25T13:03:31.213Z,5.50
2022-12-25T13:06:11.512Z,5.33
2022-12-25T13:08:52.973Z,4.97
2022-12-25T13:11:21.809Z,6.03
2022-12-25T13:13:50.184Z,5.87
2022-12-25T13:16:23.078Z,5.33
2022-12-25T13:18:52.204Z,5.77
2022-12-25T13:21:27.083Z,5.47
2022-12-25T13:23:58.809Z,5.30
2022-12-25T13:26:26.606Z,6.00
2022-12-25T13:28:55.926Z,6.17
2022-12-25T13:31:25.166Z,5.83
2022-12-25T13:34:01.452Z,6.10
2022-12-25T13:36:29.896Z,6.93
2022-12-25T13:38:58.378Z,5.70
2022-12-25T13:41:53.932Z,6.07
2022-12-25T13:44:23.349Z,6.47
2022-12-25T13:46:50.687Z,14.07
2022-12-25T13:49:19.659Z,6.60
2022-12-25T13:51:47.184Z,6.30
2022-12-25T13:54:15.604Z,6.60
2022-12-25T13:56:54.529Z,5.97
2022-12-25T13:59:23.458Z,6.37
2022-12-25T14:01:51.558Z,5.60
2022-12-25T14:04:23.568Z,6.07
2022-12-25T14:06:52.114Z,5.83
2022-12-25T14:09:20.010Z,5.90
2022-12-25T14:11:50.324Z,5.97
2022-12-25T14:14:25.204Z,6.23
2022-12-25T14:16:54.113Z,6.23
2022-12-25T14:19:24.373Z,6.00
2022-12-25T14:21:54.539Z,7.07
2022-12-25T14:24:23.422Z,5.60
2022-12-25T14:26:57.143Z,6.23
2022-12-25T14:29:28.338Z,5.77
2022-12-25T14:31:58.413Z,5.90
2022-12-25T14:34:28.359Z,5.90
2022-12-25T14:36:55.839Z,5.30
2022-12-25T14:39:34.856Z,5.70
2022-12-25T14:42:03.232Z,5.20
2022-12-25T14:44:34.726Z,5.67
2022-12-25T14:47:05.924Z,6.90
2022-12-25T14:49:33.345Z,5.80
2022-12-25T14:52:00.830Z,5.70
2022-12-25T14:54:28.358Z,5.53
2022-12-25T14:56:56.403Z,5.60
2022-12-25T14:59:27.088Z,5.50
2022-12-25T15:01:56.646Z,5.23
2022-12-25T15:04:24.548Z,5.67
2022-12-25T15:06:56.592Z,5.23
2022-12-25T15:09:24.773Z,5.40
2022-12-25T15:11:53.084Z,5.83
2022-12-25T15:14:20.462Z,5.83
2022-12-25T15:16:49.308Z,5.63
2022-12-25T15:19:23.391Z,5.53
2022-12-25T15:21:52.713Z,5.40
2022-12-25T15:24:19.906Z,5.33
2022-12-25T15:26:47.271Z,6.07
2022-12-25T15:29:14.477Z,5.50
2022-12-25T15:31:42.207Z,6.27
2022-12-25T15:34:29.052Z,5.53
2022-12-25T15:36:56.571Z,5.40
2022-12-25T15:39:23.753Z,5.57
2022-12-25T15:42:09.603Z,6.37
2022-12-25T15:44:36.962Z,6.33
2022-12-25T15:47:04.375Z,6.67
2022-12-25T15:49:31.726Z,7.20
2022-12-25T15:51:59.135Z,6.77
2022-12-25T15:54:26.378Z,6.80
2022-12-25T15:56:57.208Z,6.77
2022-12-25T15:59:24.619Z,7.40
2022-12-25T16:01:53.276Z,6.97
2022-12-25T16:04:21.239Z,6.77
2022-12-25T16:06:48.669Z,7.10
2022-12-25T16:09:16.705Z,8.07
2022-12-25T16:11:44.280Z,7.60
2022-12-25T16:14:11.592Z,7.17
2022-12-25T16:16:39.348Z,6.73
2022-12-25T16:19:06.859Z,7.23
2022-12-25T16:21:38.851Z,7.20
2022-12-25T16:24:06.303Z,7.43
2022-12-25T16:26:33.750Z,7.97
2022-12-25T16:29:06.813Z,7.90
2022-12-25T16:31:35.131Z,8.77
2022-12-25T16:34:02.470Z,8.17
2022-12-25T16:36:29.858Z,7.53
2022-12-25T16:38:57.153Z,8.13
2022-12-25T16:41:24.472Z,8.60
2022-12-25T16:43:51.699Z,7.80
2022-12-25T16:46:20.744Z,8.53
2022-12-25T16:48:48.146Z,8.37
2022-12-25T16:51:16.586Z,8.30
2022-12-25T16:53:44.149Z,7.53
2022-12-25T16:56:14.738Z,8.37
2022-12-25T16:58:42.137Z,7.97
2022-12-25T17:01:10.556Z,8.60
2022-12-25T17:03:38.091Z,7.80
2022-12-25T17:06:05.711Z,8.33
2022-12-25T17:08:32.961Z,9.10
2022-12-25T17:11:00.182Z,9.30
2022-12-25T17:13:27.464Z,8.50
2022-12-25T17:15:54.732Z,9.30
2022-12-25T17:18:22.212Z,9.23
2022-12-25T17:20:53.239Z,9.70
2022-12-25T17:23:21.253Z,8.93
2022-12-25T17:25:48.468Z,9.87
2022-12-25T17:28:15.695Z,9.20
2022-12-25T17:30:43.013Z,9.67
2022-12-25T17:33:10.315Z,9.97
2022-12-25T17:35:37.597Z,9.40
2022-12-25T17:38:04.923Z,9.97
2022-12-25T17:40:32.174Z,10.60
2022-12-25T17:42:59.796Z,10.47
2022-12-25T17:45:27.095Z,9.70
2022-12-25T17:47:57.378Z,10.07
2022-12-25T17:50:25.789Z,10.07
2022-12-25T17:52:53.289Z,9.17
2022-12-25T17:55:20.590Z,9.00
2022-12-25T17:57:47.884Z,8.97
2022-12-25T18:00:15.305Z,10.23
2022-12-25T18:02:47.205Z,9.30
2022-12-25T18:05:14.841Z,9.10
2022-12-25T18:07:42.103Z,9.53
2022-12-25T18:10:09.578Z,8.63
2022-12-25T18:12:36.910Z,9.40
2022-12-25T18:15:04.355Z,9.93
2022-12-25T18:17:31.614Z,9.37
2022-12-25T18:19:58.851Z,9.47
2022-12-25T18:22:26.165Z,9.67
2022-12-25T18:24:53.430Z,9.30
2022-12-25T18:27:20.746Z,9.03
2022-12-25T18:29:48.160Z,8.30
2022-12-25T18:32:15.449Z,9.20
2022-12-25T18:34:42.792Z,9.20
2022-12-25T18:37:10.174Z,8.63
2022-12-25T18:39:37.394Z,7.70
2022-12-25T18:42:23.688Z,8.60
2022-12-25T18:44:53.625Z,7.73
2022-12-25T18:47:20.934Z,8.00
2022-12-25T18:49:48.757Z,8.27
2022-12-25T18:52:47.895Z,8.50
2022-12-25T18:55:03.389Z,7.83
2022-12-25T18:57:32.742Z,8.33
2022-12-25T19:00:01.870Z,8.47
2022-12-25T19:02:29.341Z,8.33
2022-12-25T19:04:56.685Z,8.17
2022-12-25T19:07:24.141Z,8.10
2022-12-25T19:09:51.487Z,8.20
2022-12-25T19:12:18.933Z,8.27
2022-12-25T19:14:48.133Z,6.80
2022-12-25T19:17:15.743Z,7.90
2022-12-25T19:19:43.036Z,7.60
2022-12-25T19:22:10.557Z,8.03
2022-12-25T19:24:37.861Z,7.70
2022-12-25T19:27:05.248Z,8.27
2022-12-25T19:29:32.828Z,8.00
2022-12-25T19:32:01.163Z,7.67
2022-12-25T19:34:28.518Z,7.57
2022-12-25T19:36:56.002Z,7.00
2022-12-25T19:39:23.258Z,7.57
2022-12-25T19:41:50.435Z,6.83
2022-12-25T19:44:17.689Z,10.20
2022-12-25T19:46:44.935Z,6.97
2022-12-25T19:49:13.270Z,7.60
2022-12-25T19:51:42.640Z,6.57
2022-12-25T19:54:12.494Z,6.47
2022-12-25T19:56:39.996Z,6.67
2022-12-25T19:59:07.438Z,7.00
2022-12-25T20:01:34.954Z,6.47
2022-12-25T20:04:02.549Z,6.03
2022-12-25T20:06:31.584Z,5.70
2022-12-25T20:09:00.392Z,5.70
2022-12-25T20:11:28.877Z,6.87
2022-12-25T20:13:56.472Z,6.30
2022-12-25T20:16:24.510Z,6.40
2022-12-25T20:18:52.137Z,6.00
2022-12-25T20:21:20.356Z,6.07
2022-12-25T20:23:48.941Z,5.67
2022-12-25T20:26:17.200Z,6.13
2022-12-25T20:28:44.805Z,5.70
2022-12-25T20:31:22.705Z,5.83
2022-12-25T20:33:50.316Z,11.50
2022-12-25T20:36:18.938Z,5.93
2022-12-25T20:38:46.272Z,5.63
2022-12-25T20:41:30.582Z,5.83
2022-12-25T20:43:58.488Z,5.60
2022-12-25T20:46:26.516Z,5.97
2022-12-25T20:48:54.147Z,6.07
2022-12-25T20:51:23.277Z,6.00
2022-12-25T20:53:50.721Z,6.00
2022-12-25T20:56:19.039Z,5.77
2022-12-25T20:58:46.355Z,6.53
2022-12-25T21:01:18.022Z,5.90
2022-12-25T21:03:45.582Z,6.03
2022-12-25T21:06:13.235Z,5.63
2022-12-25T21:08:41.178Z,5.90
2022-12-25T21:11:09.149Z,6.30
2022-12-25T21:13:43.028Z,6.00
2022-12-25T21:16:11.966Z,6.80
2022-12-25T21:18:39.373Z,6.47
2022-12-25T21:21:07.717Z,6.67
2022-12-25T21:23:36.344Z,6.93
2022-12-25T21:26:31.824Z,6.87
2022-12-25T21:29:00.745Z,6.47
2022-12-25T21:31:28.585Z,6.77
2022-12-25T21:33:57.594Z,6.40
2022-12-25T21:36:25.025Z,6.67
2022-12-25T21:38:53.265Z,6.73
2022-12-25T21:41:20.906Z,6.10
2022-12-25T21:44:07.368Z,5.90
2022-12-25T21:46:34.890Z,6.70
2022-12-25T21:49:02.744Z,6.37
2022-12-25T21:51:50.101Z,7.17
2022-12-25T21:54:18.207Z,6.53
2022-12-25T21:56:47.303Z,6.47
2022-12-25T21:59:16.665Z,6.73
2022-12-25T22:01:44.789Z,6.63
2022-12-25T22:04:13.305Z,6.47
2022-12-25T22:07:19.014Z,7.27
2022-12-25T22:09:50.385Z,6.57
2022-12-25T22:12:38.141Z,7.20
2022-12-25T22:15:07.155Z,6.83
2022-12-25T22:17:54.566Z,6.53
2022-12-25T22:20:38.194Z,6.13
2022-12-25T22:23:05.618Z,7.07
2022-12-25T22:25:32.906Z,7.03
2022-12-25T22:28:00.537Z,6.70
2022-12-25T22:30:28.578Z,6.57
2022-12-25T22:32:55.985Z,6.63
2022-12-25T22:35:23.588Z,6.67
2022-12-25T22:37:51.364Z,6.40
2022-12-25T22:40:19.771Z,7.00
2022-12-25T22:42:47.172Z,6.70
2022-12-25T22:45:14.703Z,6.97
2022-12-25T22:47:42.148Z,7.03
2022-12-25T22:50:10.043Z,7.57
2022-12-25T22:52:37.572Z,7.57
2022-12-25T22:55:05.642Z,7.70
2022-12-25T22:57:32.950Z,7.63
2022-12-25T23:00:00.292Z,7.70
2022-12-25T23:02:27.978Z,7.33
2022-12-25T23:04:55.509Z,6.80
2022-12-25T23:07:22.757Z,7.80
2022-12-25T23:09:50.063Z,7.17
2022-12-25T23:12:36.181Z,6.80
2022-12-25T23:15:03.636Z,7.23
2022-12-25T23:17:49.389Z,7.33
2022-12-25T23:20:35.480Z,7.00
2022-12-25T23:23:21.456Z,7.50
2022-12-25T23:26:07.541Z,6.73
2022-12-25T23:28:54.478Z,11.57
2022-12-25T23:31:24.152Z,11.37
2022-12-25T23:33:51.450Z,7.67
2022-12-25T23:36:18.874Z,6.60
2022-12-25T23:38:46.222Z,7.10
2022-12-25T23:41:13.591Z,6.83
2022-12-25T23:43:40.983Z,6.33
2022-12-25T23:46:08.321Z,5.97
2022-12-25T23:48:35.592Z,6.70
2022-12-25T23:51:03.987Z,6.37
2022-12-25T23:53:31.910Z,6.37
2022-12-25T23:55:59.842Z,5.77
2022-12-25T23:58:28.124Z,6.13
